createdAt,value
2023-05-10T00:01:35.125Z,5.78
2023-05-10T00:04:03.354Z,7.13
2023-05-10T00:06:32.564Z,6.28
2023-05-10T00:09:00.845Z,6.63
2023-05-10T00:11:29.115Z,7.95
2023-05-10T00:14:00.967Z,8.77
2023-05-10T00:16:29.357Z,7.57
2023-05-10T00:18:57.590Z,8.00
2023-05-10T00:21:25.858Z,11.10
2023-05-10T00:23:54.072Z,5.55
2023-05-10T00:26:22.426Z,9.77
2023-05-10T00:28:54.158Z,7.07
2023-05-10T00:31:22.665Z,7.30
2023-05-10T00:33:52.355Z,6.75
2023-05-10T00:36:20.640Z,4.60
2023-05-10T00:38:48.936Z,5.25
2023-05-10T00:41:17.660Z,3.65
2023-05-10T00:43:47.545Z,6.28
2023-05-10T00:46:16.898Z,5.32
2023-05-10T00:48:45.888Z,5.30
2023-05-10T00:51:14.769Z,4.80
2023-05-10T00:53:43.890Z,5.93
2023-05-10T00:56:12.187Z,3.80
2023-05-10T00:58:41.486Z,4.32
2023-05-10T01:01:10.814Z,5.07
2023-05-10T01:03:40.749Z,5.05
2023-05-10T01:06:10.938Z,4.97
2023-05-10T01:08:39.520Z,5.38
2023-05-10T01:11:07.826Z,4.40
2023-05-10T01:13:41.994Z,3.75
2023-05-10T01:16:11.125Z,4.18
2023-05-10T01:18:45.250Z,3.85
2023-05-10T01:21:24.153Z,5.93
2023-05-10T01:24:13.721Z,4.63
2023-05-10T01:27:04.450Z,3.70
2023-05-10T01:30:21.821Z,4.43
2023-05-10T01:32:59.916Z,7.60
2023-05-10T01:35:47.721Z,4.20
2023-05-10T01:38:21.042Z,2.97
2023-05-10T01:41:10.766Z,6.82
2023-05-10T01:44:16.919Z,3.22
2023-05-10T01:46:49.876Z,7.70
2023-05-10T01:49:27.833Z,4.10
2023-05-10T01:52:02.912Z,5.18
2023-05-10T01:54:32.246Z,3.78
2023-05-10T01:57:09.913Z,4.15
2023-05-10T01:59:42.063Z,4.03
2023-05-10T02:02:13.212Z,5.85
2023-05-10T02:04:43.201Z,3.20
2023-05-10T02:07:12.707Z,3.60
2023-05-10T02:09:45.103Z,4.50
2023-05-10T02:12:16.627Z,4.05
2023-05-10T02:14:46.265Z,3.17
2023-05-10T02:17:15.362Z,4.15
2023-05-10T02:19:44.327Z,2.90
2023-05-10T02:22:13.898Z,7.10
2023-05-10T02:24:42.893Z,4.20
2023-05-10T02:27:12.359Z,4.32
2023-05-10T02:29:41.160Z,5.97
2023-05-10T02:32:12.973Z,5.22
2023-05-10T02:34:41.952Z,2.53
2023-05-10T02:37:11.133Z,4.53
2023-05-10T02:39:44.731Z,3.30
2023-05-10T02:42:19.731Z,4.15
2023-05-10T02:44:51.582Z,4.78
2023-05-10T02:47:20.640Z,4.05
2023-05-10T02:49:50.424Z,5.80
2023-05-10T02:52:30.252Z,3.35
2023-05-10T02:55:04.632Z,3.33
2023-05-10T02:57:39.809Z,3.97
2023-05-10T03:00:08.675Z,4.32
2023-05-10T03:02:37.411Z,6.32
2023-05-10T03:05:06.136Z,3.63
2023-05-10T03:07:35.318Z,4.20
2023-05-10T03:10:04.537Z,4.97
2023-05-10T03:13:01.373Z,4.50
2023-05-10T03:15:49.823Z,5.53
2023-05-10T03:18:24.448Z,3.83
2023-05-10T03:21:00.373Z,5.95
2023-05-10T03:23:35.254Z,6.03
2023-05-10T03:26:05.920Z,5.13
2023-05-10T03:28:36.309Z,6.63
2023-05-10T03:31:07.644Z,6.05
2023-05-10T03:33:36.379Z,6.43
2023-05-10T03:36:04.911Z,7.45
2023-05-10T03:38:33.200Z,4.68
2023-05-10T03:41:01.485Z,4.80
2023-05-10T03:43:29.698Z,11.18
2023-05-10T03:45:57.934Z,7.07
2023-05-10T03:48:26.186Z,5.25
2023-05-10T03:50:55.209Z,5.65
2023-05-10T03:53:24.116Z,7.13
2023-05-10T03:55:52.421Z,6.88
2023-05-10T03:58:20.867Z,4.07
2023-05-10T04:00:49.240Z,5.30
2023-05-10T04:03:17.836Z,8.23
2023-05-10T04:05:46.098Z,5.00
2023-05-10T04:08:15.836Z,7.45
2023-05-10T04:10:44.580Z,5.65
2023-05-10T04:13:12.972Z,4.97
2023-05-10T04:15:41.257Z,8.48
2023-05-10T04:18:09.570Z,4.07
2023-05-10T04:20:37.754Z,7.85
2023-05-10T04:23:05.979Z,5.57
2023-05-10T04:25:36.595Z,4.20
2023-05-10T04:28:04.937Z,6.60
2023-05-10T04:30:33.190Z,4.78
2023-05-10T04:33:02.908Z,5.65
2023-05-10T04:35:31.350Z,3.90
2023-05-10T04:37:59.550Z,4.60
2023-05-10T04:40:28.160Z,5.70
2023-05-10T04:42:56.608Z,4.20
2023-05-10T04:45:24.836Z,6.35
2023-05-10T04:47:53.019Z,5.05
2023-05-10T04:50:21.274Z,4.47
2023-05-10T04:52:49.480Z,4.93
2023-05-10T04:55:17.909Z,4.28
2023-05-10T04:57:46.124Z,5.32
2023-05-10T05:00:14.959Z,8.40
2023-05-10T05:02:47.051Z,4.60
2023-05-10T05:05:15.397Z,7.45
2023-05-10T05:07:43.620Z,9.57
2023-05-10T05:10:11.861Z,4.30
2023-05-10T05:12:40.129Z,6.82
2023-05-10T05:15:10.337Z,5.53
2023-05-10T05:17:38.715Z,5.97
2023-05-10T05:20:07.652Z,3.67
2023-05-10T05:22:36.850Z,4.35
2023-05-10T05:25:05.519Z,6.03
2023-05-10T05:27:33.857Z,5.18
2023-05-10T05:30:02.094Z,4.03
2023-05-10T05:32:32.428Z,4.30
2023-05-10T05:35:00.674Z,7.20
2023-05-10T05:37:28.940Z,4.93
2023-05-10T05:39:57.251Z,7.50
2023-05-10T05:42:25.615Z,6.30
2023-05-10T05:44:53.829Z,6.07
2023-05-10T05:47:22.299Z,5.85
2023-05-10T05:49:50.509Z,6.13
2023-05-10T05:52:18.953Z,7.35
2023-05-10T05:54:47.146Z,9.10
2023-05-10T05:57:15.321Z,5.32
2023-05-10T05:59:44.966Z,5.43
2023-05-10T06:02:13.284Z,5.03
2023-05-10T06:04:44.419Z,4.15
2023-05-10T06:07:13.041Z,5.63
2023-05-10T06:09:41.246Z,4.25
2023-05-10T06:12:09.493Z,3.65
2023-05-10T06:14:37.671Z,4.50
2023-05-10T06:17:06.289Z,4.90
2023-05-10T06:19:34.569Z,5.50
2023-05-10T06:22:03.525Z,4.03
2023-05-10T06:24:31.799Z,5.18
2023-05-10T06:27:01.515Z,6.47
2023-05-10T06:29:29.740Z,8.00
2023-05-10T06:31:58.025Z,5.40
2023-05-10T06:34:26.819Z,7.78
2023-05-10T06:36:55.067Z,4.45
2023-05-10T06:39:23.330Z,4.35
2023-05-10T06:41:51.653Z,3.28
2023-05-10T06:44:21.237Z,3.17
2023-05-10T06:46:49.498Z,5.05
2023-05-10T06:49:17.814Z,4.20
2023-05-10T06:51:46.168Z,4.75
2023-05-10T06:54:14.389Z,7.10
2023-05-10T06:56:42.673Z,5.20
2023-05-10T06:59:10.948Z,4.68
2023-05-10T07:01:39.553Z,4.30
2023-05-10T07:04:08.636Z,4.30
2023-05-10T07:06:37.087Z,4.88
2023-05-10T07:09:05.280Z,5.30
2023-05-10T07:11:33.692Z,4.00
2023-05-10T07:14:02.105Z,3.45
2023-05-10T07:16:30.360Z,5.15
2023-05-10T07:18:58.605Z,4.45
2023-05-10T07:21:29.741Z,5.03
2023-05-10T07:23:58.176Z,4.25
2023-05-10T07:26:26.817Z,5.72
2023-05-10T07:28:55.125Z,5.68
2023-05-10T07:31:23.398Z,5.82
2023-05-10T07:33:51.738Z,4.22
2023-05-10T07:36:19.952Z,6.00
2023-05-10T07:38:48.178Z,9.95
2023-05-10T07:41:16.596Z,4.50
2023-05-10T07:43:45.281Z,4.97
2023-05-10T07:46:13.616Z,3.90
2023-05-10T07:48:42.367Z,4.13
2023-05-10T07:51:10.722Z,8.00
2023-05-10T07:53:39.553Z,6.25
2023-05-10T07:56:33.388Z,5.28
2023-05-10T08:01:35.262Z,6.40
2023-05-10T08:04:03.824Z,4.63
2023-05-10T08:06:32.237Z,6.78
2023-05-10T08:09:00.491Z,5.63
2023-05-10T08:11:28.897Z,5.38
2023-05-10T08:13:57.191Z,6.75
2023-05-10T08:16:25.557Z,6.97
2023-05-10T08:18:56.314Z,6.93
2023-05-10T08:21:24.671Z,9.57
2023-05-10T08:23:52.934Z,5.82
2023-05-10T08:26:22.506Z,7.88
2023-05-10T08:28:51.036Z,10.73
2023-05-10T08:31:19.722Z,8.50
2023-05-10T08:33:47.914Z,5.38
2023-05-10T08:36:20.749Z,5.18
2023-05-10T08:38:55.748Z,6.10
2023-05-10T08:41:26.860Z,6.30
2023-05-10T08:43:55.990Z,9.65
2023-05-10T08:46:25.156Z,8.40
2023-05-10T08:48:54.641Z,5.28
2023-05-10T08:51:28.156Z,6.88
2023-05-10T08:53:57.387Z,6.15
2023-05-10T08:56:25.780Z,7.95
2023-05-10T08:58:54.150Z,6.85
2023-05-10T09:01:23.498Z,5.80
2023-05-10T09:03:52.763Z,4.75
2023-05-10T09:06:21.431Z,9.02
2023-05-10T09:08:49.911Z,10.35
2023-05-10T09:11:18.801Z,4.90
2023-05-10T09:13:49.139Z,7.03
2023-05-10T09:16:21.857Z,4.32
2023-05-10T09:18:50.991Z,9.02
2023-05-10T09:21:21.639Z,6.00
2023-05-10T09:23:51.206Z,5.55
2023-05-10T09:26:24.739Z,4.85
2023-05-10T09:31:26.832Z,5.93
2023-05-10T09:33:55.389Z,8.55
2023-05-10T09:36:23.740Z,6.57
2023-05-10T09:38:53.774Z,4.97
2023-05-10T09:41:26.033Z,5.82
2023-05-10T09:43:57.956Z,4.57
2023-05-10T09:46:26.963Z,5.90
2023-05-10T09:48:55.315Z,8.20
2023-05-10T09:51:25.039Z,6.07
2023-05-10T09:54:12.915Z,6.57
2023-05-10T09:56:41.770Z,6.03
2023-05-10T09:59:13.370Z,5.68
2023-05-10T10:01:42.682Z,5.50
2023-05-10T10:04:12.213Z,7.53
2023-05-10T10:06:43.277Z,6.18
2023-05-10T10:09:11.717Z,9.93
2023-05-10T10:11:42.492Z,6.57
2023-05-10T10:14:12.539Z,8.27
2023-05-10T10:16:48.700Z,6.57
2023-05-10T10:19:29.108Z,7.47
2023-05-10T10:21:57.426Z,7.00
2023-05-10T10:24:25.689Z,6.50
2023-05-10T10:26:58.317Z,5.65
2023-05-10T10:29:38.219Z,6.80
2023-05-10T10:32:21.561Z,6.68
2023-05-10T10:34:50.669Z,5.90
2023-05-10T10:37:19.751Z,5.53
2023-05-10T10:39:51.461Z,6.50
2023-05-10T10:42:56.822Z,6.18
2023-05-10T10:45:26.790Z,8.23
2023-05-10T10:48:22.612Z,6.93
2023-05-10T10:51:01.400Z,7.57
2023-05-10T10:53:29.956Z,6.00
2023-05-10T10:56:16.060Z,5.40
2023-05-10T10:58:54.816Z,8.00
2023-05-10T11:01:23.239Z,7.07
2023-05-10T11:04:11.753Z,8.38
2023-05-10T11:06:41.254Z,5.97
2023-05-10T11:09:11.493Z,6.22
2023-05-10T11:11:56.523Z,7.00
2023-05-10T11:14:25.221Z,5.38
2023-05-10T11:16:53.797Z,5.82
2023-05-10T11:19:22.163Z,5.47
2023-05-10T11:22:16.601Z,5.88
2023-05-10T11:24:59.618Z,6.13
2023-05-10T11:27:27.877Z,5.30
2023-05-10T11:29:56.102Z,4.80
2023-05-10T11:32:24.707Z,7.35
2023-05-10T11:34:52.984Z,6.03
2023-05-10T11:37:21.216Z,7.03
2023-05-10T11:39:49.442Z,6.00
2023-05-10T11:42:17.916Z,9.27
2023-05-10T11:44:48.036Z,5.45
2023-05-10T11:47:16.349Z,9.82
2023-05-10T11:49:48.905Z,7.50
2023-05-10T11:52:19.666Z,6.37
2023-05-10T11:54:54.142Z,5.47
2023-05-10T11:57:27.030Z,6.85
2023-05-10T11:59:57.316Z,8.27
2023-05-10T12:02:26.058Z,6.95
2023-05-10T12:04:56.243Z,6.85
2023-05-10T12:07:24.589Z,6.85
2023-05-10T12:10:09.387Z,5.65
2023-05-10T12:12:40.031Z,7.53
2023-05-10T12:15:32.513Z,7.85
2023-05-10T12:18:00.941Z,6.57
2023-05-10T12:20:29.775Z,8.60
2023-05-10T12:23:04.180Z,7.00
2023-05-10T12:25:37.057Z,5.85
2023-05-10T12:28:10.181Z,12.60
2023-05-10T12:30:39.880Z,5.70
2023-05-10T12:33:12.944Z,9.48
2023-05-10T12:35:50.504Z,9.90
2023-05-10T12:38:39.199Z,6.55
2023-05-10T12:41:10.754Z,7.10
2023-05-10T12:43:40.389Z,5.22
2023-05-10T12:46:09.744Z,7.40
2023-05-10T12:48:39.442Z,4.25
2023-05-10T12:51:13.859Z,8.63
2023-05-10T12:53:45.127Z,6.25
2023-05-10T12:56:14.288Z,4.63
2023-05-10T12:58:42.634Z,4.13
2023-05-10T13:01:11.113Z,4.53
2023-05-10T13:03:39.305Z,5.45
2023-05-10T13:06:07.568Z,6.53
2023-05-10T13:08:35.919Z,3.65
2023-05-10T13:11:04.630Z,4.45
2023-05-10T13:13:32.930Z,5.95
2023-05-10T13:16:01.095Z,4.80
2023-05-10T13:18:29.331Z,5.70
2023-05-10T13:20:57.628Z,6.35
2023-05-10T13:23:25.915Z,7.07
2023-05-10T13:25:54.054Z,4.28
2023-05-10T13:28:22.243Z,4.15
2023-05-10T13:30:50.572Z,4.90
2023-05-10T13:33:18.788Z,6.47
2023-05-10T13:35:47.024Z,7.00
2023-05-10T13:38:15.226Z,5.82
2023-05-10T13:40:43.455Z,6.97
2023-05-10T13:43:11.770Z,6.47
2023-05-10T13:45:40.035Z,3.10
2023-05-10T13:48:08.319Z,4.35
2023-05-10T13:50:36.671Z,4.63
2023-05-10T13:53:04.806Z,7.97
2023-05-10T13:55:33.176Z,5.47
2023-05-10T13:58:01.354Z,5.32
2023-05-10T14:00:29.550Z,5.72
2023-05-10T14:02:57.778Z,4.72
2023-05-10T14:05:26.622Z,3.60
2023-05-10T14:07:55.196Z,5.97
2023-05-10T14:10:23.360Z,5.95
2023-05-10T14:12:51.942Z,3.83
2023-05-10T14:15:20.352Z,3.85
2023-05-10T14:17:49.012Z,6.85
2023-05-10T14:20:17.359Z,4.95
2023-05-10T14:22:46.702Z,4.97
2023-05-10T14:25:15.594Z,4.55
2023-05-10T14:27:44.284Z,6.63
2023-05-10T14:30:12.963Z,6.85
2023-05-10T14:32:41.147Z,8.55
2023-05-10T14:35:12.110Z,4.72
2023-05-10T14:37:41.461Z,6.47
2023-05-10T14:40:10.339Z,5.07
2023-05-10T14:42:38.487Z,3.40
2023-05-10T14:45:07.201Z,4.25
2023-05-10T14:47:35.336Z,4.28
2023-05-10T14:50:03.580Z,4.80
2023-05-10T14:52:34.236Z,4.78
2023-05-10T14:55:03.071Z,3.80
2023-05-10T14:57:31.265Z,2.50
2023-05-10T14:59:59.526Z,6.25
2023-05-10T15:02:28.277Z,5.97
2023-05-10T15:04:56.964Z,4.65
2023-05-10T15:07:25.756Z,5.47
2023-05-10T15:09:55.050Z,5.32
2023-05-10T15:12:23.382Z,5.57
2023-05-10T15:14:51.630Z,4.20
2023-05-10T15:17:19.771Z,4.50
2023-05-10T15:19:47.999Z,5.35
2023-05-10T15:22:16.325Z,5.18
2023-05-10T15:24:44.542Z,6.07
2023-05-10T15:27:12.820Z,5.70
2023-05-10T15:29:41.508Z,5.25
2023-05-10T15:32:09.632Z,4.95
2023-05-10T15:34:37.896Z,7.05
2023-05-10T15:37:06.199Z,3.47
2023-05-10T15:39:34.494Z,4.50
2023-05-10T15:42:04.012Z,4.35
2023-05-10T15:44:32.259Z,5.80
2023-05-10T15:47:00.734Z,5.57
2023-05-10T15:49:29.167Z,5.63
2023-05-10T15:51:57.437Z,4.22
2023-05-10T15:54:25.724Z,7.15
2023-05-10T15:56:55.082Z,4.03
2023-05-10T15:59:23.336Z,4.25
2023-05-10T16:01:52.631Z,3.42
2023-05-10T16:04:21.071Z,4.20
2023-05-10T16:06:49.495Z,4.05
2023-05-10T16:09:17.852Z,4.60
2023-05-10T16:11:46.285Z,5.43
2023-05-10T16:14:14.577Z,4.18
2023-05-10T16:16:43.460Z,4.07
2023-05-10T16:19:11.836Z,4.55
2023-05-10T16:21:40.160Z,18.20
2023-05-10T16:24:08.587Z,4.68
2023-05-10T16:26:41.005Z,4.97
2023-05-10T16:29:10.470Z,7.13
2023-05-10T16:31:39.118Z,6.95
2023-05-10T16:34:07.322Z,4.70
2023-05-10T16:36:35.559Z,5.05
2023-05-10T16:39:04.114Z,5.90
2023-05-10T16:41:35.616Z,6.13
2023-05-10T16:44:04.060Z,4.68
2023-05-10T16:46:33.205Z,5.10
2023-05-10T16:49:01.487Z,6.35
2023-05-10T16:51:29.709Z,6.35
2023-05-10T16:53:57.956Z,5.22
2023-05-10T16:56:26.706Z,6.43
2023-05-10T16:58:54.930Z,7.07
2023-05-10T17:01:25.782Z,4.90
2023-05-10T17:03:55.404Z,4.68
2023-05-10T17:06:23.913Z,3.47
2023-05-10T17:08:52.213Z,4.03
2023-05-10T17:11:21.871Z,4.55
2023-05-10T17:13:52.026Z,3.67
2023-05-10T17:16:21.395Z,5.05
2023-05-10T17:18:49.838Z,6.15
2023-05-10T17:21:18.215Z,7.95
2023-05-10T17:23:46.511Z,5.03
2023-05-10T17:26:14.833Z,6.72
2023-05-10T17:28:43.088Z,6.63
2023-05-10T17:31:11.782Z,6.60
2023-05-10T17:33:40.323Z,5.57
2023-05-10T17:36:08.834Z,6.85
2023-05-10T17:38:37.629Z,4.68
2023-05-10T17:41:07.528Z,6.75
2023-05-10T17:43:35.801Z,6.40
2023-05-10T17:46:04.140Z,6.43
2023-05-10T17:48:32.570Z,5.28
2023-05-10T17:51:00.840Z,8.48
2023-05-10T17:53:29.318Z,6.68
2023-05-10T17:55:59.039Z,8.35
2023-05-10T17:58:27.890Z,7.35
2023-05-10T18:00:57.643Z,6.28
2023-05-10T18:03:26.073Z,11.07
2023-05-10T18:05:55.296Z,11.57
2023-05-10T18:08:27.003Z,9.45
2023-05-10T18:10:55.392Z,9.50
2023-05-10T18:13:25.617Z,6.35
2023-05-10T18:15:53.972Z,8.32
2023-05-10T18:18:22.262Z,7.80
2023-05-10T18:20:56.502Z,10.98
2023-05-10T18:23:25.049Z,12.35
2023-05-10T18:25:53.343Z,9.30
2023-05-10T18:28:21.629Z,7.15
2023-05-10T18:30:51.222Z,7.10
2023-05-10T18:33:19.751Z,8.65
2023-05-10T18:35:48.097Z,7.20
2023-05-10T18:38:17.519Z,7.85
2023-05-10T18:40:46.878Z,9.00
2023-05-10T18:43:15.163Z,8.88
2023-05-10T18:45:43.971Z,11.65
2023-05-10T18:48:12.245Z,9.10
2023-05-10T18:50:40.562Z,9.65
2023-05-10T18:53:08.871Z,10.20
2023-05-10T18:55:37.225Z,9.63
2023-05-10T18:58:05.732Z,10.73
2023-05-10T19:00:34.118Z,16.15
2023-05-10T19:03:02.439Z,10.02
2023-05-10T19:05:31.803Z,10.90
2023-05-10T19:08:00.167Z,22.67
2023-05-10T19:10:28.532Z,13.15
2023-05-10T19:12:57.847Z,12.93
2023-05-10T19:15:27.385Z,13.38
2023-05-10T19:18:00.376Z,12.50
2023-05-10T19:20:29.636Z,13.95
2023-05-10T19:23:09.173Z,14.65
2023-05-10T19:25:39.456Z,12.90
2023-05-10T19:28:09.678Z,14.57
2023-05-10T19:30:38.424Z,12.90
2023-05-10T19:33:06.824Z,13.70
2023-05-10T19:35:36.074Z,17.45
2023-05-10T19:38:04.568Z,18.05
2023-05-10T19:40:32.815Z,14.65
2023-05-10T19:43:01.979Z,13.95
2023-05-10T19:45:31.516Z,14.63
2023-05-10T19:47:59.952Z,17.13
2023-05-10T19:50:29.222Z,16.02
2023-05-10T19:52:59.543Z,15.57
2023-05-10T19:55:32.327Z,15.68
2023-05-10T19:58:00.900Z,17.33
2023-05-10T20:00:29.582Z,17.13
2023-05-10T20:02:59.383Z,15.18
2023-05-10T20:05:28.837Z,16.38
2023-05-10T20:07:57.238Z,15.05
2023-05-10T20:10:27.152Z,16.13
2023-05-10T20:12:56.598Z,17.40
2023-05-10T20:15:26.075Z,16.13
2023-05-10T20:17:55.601Z,18.80
2023-05-10T20:20:25.404Z,19.70
2023-05-10T20:22:53.807Z,15.85
2023-05-10T20:25:22.137Z,16.65
2023-05-10T20:27:54.381Z,16.58
2023-05-10T20:30:23.149Z,18.77
2023-05-10T20:32:51.961Z,17.27
2023-05-10T20:35:20.456Z,16.20
2023-05-10T20:37:48.743Z,19.48
2023-05-10T20:40:17.457Z,18.63
2023-05-10T20:42:45.948Z,21.00
2023-05-10T20:45:14.251Z,18.67
2023-05-10T20:47:42.607Z,15.57
2023-05-10T20:50:12.174Z,18.27
2023-05-10T20:52:40.530Z,22.27
2023-05-10T20:55:09.610Z,18.77
2023-05-10T20:57:38.299Z,19.35
2023-05-10T21:00:07.379Z,17.77
2023-05-10T21:02:35.765Z,17.33
2023-05-10T21:05:04.286Z,19.45
2023-05-10T21:07:32.950Z,18.13
2023-05-10T21:10:01.249Z,17.92
2023-05-10T21:12:29.583Z,18.60
2023-05-10T21:14:57.851Z,15.80
2023-05-10T21:17:26.137Z,15.73
2023-05-10T21:19:54.366Z,11.70
2023-05-10T21:22:22.634Z,11.77
2023-05-10T21:24:50.850Z,8.15
2023-05-10T21:27:19.074Z,8.80
2023-05-10T21:29:47.313Z,7.70
2023-05-10T21:32:15.734Z,9.13
2023-05-10T21:34:43.968Z,7.15
2023-05-10T21:37:12.305Z,8.23
2023-05-10T21:39:40.521Z,6.13
2023-05-10T21:42:08.743Z,8.15
2023-05-10T21:44:38.659Z,9.00
2023-05-10T21:47:06.907Z,12.93
2023-05-10T21:49:35.480Z,8.82
2023-05-10T21:52:03.926Z,7.20
2023-05-10T21:54:32.181Z,9.88
2023-05-10T21:57:00.545Z,13.48
2023-05-10T21:59:28.767Z,16.38
2023-05-10T22:01:56.996Z,14.10
2023-05-10T22:04:25.403Z,17.85
2023-05-10T22:06:53.617Z,15.70
2023-05-10T22:09:24.299Z,19.45
2023-05-10T22:11:52.623Z,17.40
2023-05-10T22:14:21.563Z,17.48
2023-05-10T22:16:49.786Z,15.45
2023-05-10T22:19:18.157Z,14.60
2023-05-10T22:21:46.650Z,15.63
2023-05-10T22:24:15.088Z,14.32
2023-05-10T22:26:43.333Z,14.18
2023-05-10T22:29:11.898Z,14.00
2023-05-10T22:31:40.154Z,13.52
2023-05-10T22:34:08.430Z,10.90
2023-05-10T22:36:37.353Z,10.93
2023-05-10T22:39:05.634Z,13.98
2023-05-10T22:41:34.435Z,10.25
2023-05-10T22:44:04.912Z,10.32
2023-05-10T22:46:33.902Z,10.80
2023-05-10T22:49:02.592Z,12.27
2023-05-10T22:51:30.773Z,8.45
2023-05-10T22:53:59.283Z,8.45
2023-05-10T22:56:27.663Z,8.57
2023-05-10T22:58:57.650Z,7.07
2023-05-10T23:01:26.153Z,11.40
2023-05-10T23:03:54.377Z,3.55
2023-05-10T23:06:22.649Z,3.60
2023-05-10T23:08:50.990Z,3.25
2023-05-10T23:11:25.666Z,3.22
2023-05-10T23:13:53.868Z,5.15
2023-05-10T23:16:22.341Z,2.40
2023-05-10T23:18:50.607Z,2.60
2023-05-10T23:21:18.859Z,6.82
2023-05-10T23:23:47.217Z,7.00
2023-05-10T23:26:15.505Z,2.70
2023-05-10T23:28:43.671Z,2.35
2023-05-10T23:31:11.921Z,4.35
2023-05-10T23:33:40.347Z,3.00
2023-05-10T23:36:08.866Z,2.00
2023-05-10T23:38:39.444Z,1.38
2023-05-10T23:41:07.710Z,1.20
2023-05-10T23:43:35.933Z,1.20
2023-05-10T23:46:05.511Z,1.65
2023-05-10T23:48:33.759Z,1.85
2023-05-10T23:51:01.954Z,1.02
2023-05-10T23:53:30.189Z,2.63
2023-05-10T23:55:58.436Z,1.40
2023-05-10T23:58:26.671Z,0.40
